If you wish to contribute or participate in the discussions about articles you are invited to join SKYbrary as a registered user

 Actions

Augusto C. Sandino International Airport

From SKYbrary Wiki

MNMG
Airport
ICAO: MNMG – IATA: MGA
Summary
Name Augusto C. Sandino International Airport
Region South America and Caribbean
Territory Nicaragua NI.gif
Location Managua, Managua
Serving Managua
Elevation 59.131 m
194 ft59.131 m
Coordinates 12° 8' 40.75" N, 86° 10' 16.74" W
Runways
Designator Length Width Surface ROPS
9/27 2442 m8,011.811 ft
45 m147.638 ft
ASP no/no


METAR
Observation MNMG 172100Z 11016KT 9999 FEW030 36/17 Q1007 A2974 NOSIG
Station Managua A. C. Sandino
Date/Time 17 April 2019 21:00:00
Wind direction 110°
Wind speed 16 kts
Lowest cloud amount few clouds
Temperature 36°C
Dew point 17°C
Humidity 32%
QNH 1007 hPa
Weather condition n/a

Augusto C. Sandino International Airport (IATA: MGA) is the main airport in Managua, Nicaragua.

Climatology

Tropical savannah climate (Köppen climate classification Aw)

Maps

Terrain

Loading map...

Airport Layout

Loading map...


Accidents & Serious Incidents at or in vicinity of MNMG

None on SKYbrary